Ship Status Report: callsign EA3320

sailwx.info

Track history (hours):
 
Tides and Currents Weather Stations Pressure Air Temp Water Temp Dewpoint Dewpoint Depression Visibility Wind Speed Wind Dir Waves Ship Positions

Callsign EA3320 (name unknown)

Last reported at 2018-Jun-19 04:00 UTC. Time now 2018-Jun-25 06:00 UTC.
Position N 43°27' W 002°41'.

Date/timePositionNaut miles runAvg speedWind from/ knotsBaromVisibWave heightAir tempDewpointWater temp
2018-Jun-19 04:00N 43°27' W 002°41'5 9.2
2018-Jun-19 03:30N 43°25' W 002°35'0 0.1
2018-Jun-19 00:43N 43°24' W 002°36'0 0.0
2018-Jun-19 00:28N 43°24' W 002°36'0 0.0
2018-Jun-18 23:56N 43°24' W 002°36'0 0.0
2018-Jun-18 23:30N 43°24' W 002°36'0 0.0
2018-Jun-18 22:55N 43°24' W 002°36'0 0.0
2018-Jun-18 22:28N 43°24' W 002°36'0 0.0
2018-Jun-18 21:49N 43°24' W 002°36'0 0.0
2018-Jun-18 21:27N 43°24' W 002°36'0 0.0
2018-Jun-18 19:48N 43°24' W 002°36'0 0.0
2018-Jun-18 19:29N 43°24' W 002°36'0 0.0
2018-Jun-18 19:01N 43°24' W 002°36'0 0.0
2018-Jun-18 18:30N 43°24' W 002°36'0 0.0
2018-Jun-18 17:59N 43°24' W 002°36'0 0.0
2018-Jun-18 17:26N 43°24' W 002°36'0 0.1
2018-Jun-18 16:58N 43°24' W 002°36'3 7.4
2018-Jun-18 16:30N 43°26' W 002°40'  
2018-Jun-15 04:21N 43°28' W 002°45'3 9.9
2018-Jun-15 04:00N 43°26' W 002°40'3 6.9
2018-Jun-15 03:31N 43°25' W 002°36'0 0.2
2018-Jun-15 03:00N 43°25' W 002°36'0 0.3
2018-Jun-15 02:30N 43°24' W 002°36'0 0.2
2018-Jun-15 01:55N 43°24' W 002°36'0 0.2
2018-Jun-15 01:31N 43°24' W 002°36'0 0.1
2018-Jun-15 00:55N 43°24' W 002°36'0 0.1
2018-Jun-15 00:26N 43°24' W 002°36'0 0.0
2018-Jun-14 23:58N 43°24' W 002°36'0 0.1
2018-Jun-14 23:27N 43°24' W 002°36'0 0.0
2018-Jun-14 22:59N 43°24' W 002°36'0 0.0
2018-Jun-14 22:30N 43°24' W 002°36'0 0.0
2018-Jun-14 22:00N 43°24' W 002°36'0 0.0
2018-Jun-14 21:30N 43°24' W 002°36'0 0.1
2018-Jun-14 20:59N 43°24' W 002°36'0 0.0
2018-Jun-14 18:48N 43°24' W 002°36'0 0.1
2018-Jun-14 18:24N 43°24' W 002°36'3 8.2
2018-Jun-14 18:00N 43°26' W 002°40'  
2018-Jun-12 00:13N 43°24' W 003°13'0 0.9
2018-Jun-11 23:58N 43°25' W 003°13'0 0.6
2018-Jun-11 23:30N 43°25' W 003°13'  
Track history (hours):
 
Tides and Currents Weather Stations Pressure Air Temp Water Temp Dewpoint Dewpoint Depression Visibility Wind Speed Wind Dir Waves Ship Positions

Callsign EA3320 (name unknown)

Last reported at 2018-Jun-19 04:00 UTC. Time now 2018-Jun-25 06:00 UTC.
Position N 43°27' W 002°41'.

Date/timePositionNaut miles runAvg speedWind from/ knotsBaromVisibWave heightAir tempDewpointWater temp
2018-Jun-19 04:00N 43°27' W 002°41'5 9.2
2018-Jun-19 03:30N 43°25' W 002°35'0 0.1
2018-Jun-19 00:43N 43°24' W 002°36'0 0.0
2018-Jun-19 00:28N 43°24' W 002°36'0 0.0
2018-Jun-18 23:56N 43°24' W 002°36'0 0.0
2018-Jun-18 23:30N 43°24' W 002°36'0 0.0
2018-Jun-18 22:55N 43°24' W 002°36'0 0.0
2018-Jun-18 22:28N 43°24' W 002°36'0 0.0
2018-Jun-18 21:49N 43°24' W 002°36'0 0.0
2018-Jun-18 21:27N 43°24' W 002°36'0 0.0
2018-Jun-18 19:48N 43°24' W 002°36'0 0.0
2018-Jun-18 19:29N 43°24' W 002°36'0 0.0
2018-Jun-18 19:01N 43°24' W 002°36'0 0.0
2018-Jun-18 18:30N 43°24' W 002°36'0 0.0
2018-Jun-18 17:59N 43°24' W 002°36'0 0.0
2018-Jun-18 17:26N 43°24' W 002°36'0 0.1
2018-Jun-18 16:58N 43°24' W 002°36'3 7.4
2018-Jun-18 16:30N 43°26' W 002°40'  
2018-Jun-15 04:21N 43°28' W 002°45'3 9.9
2018-Jun-15 04:00N 43°26' W 002°40'3 6.9
2018-Jun-15 03:31N 43°25' W 002°36'0 0.2
2018-Jun-15 03:00N 43°25' W 002°36'0 0.3
2018-Jun-15 02:30N 43°24' W 002°36'0 0.2
2018-Jun-15 01:55N 43°24' W 002°36'0 0.2
2018-Jun-15 01:31N 43°24' W 002°36'0 0.1
2018-Jun-15 00:55N 43°24' W 002°36'0 0.1
2018-Jun-15 00:26N 43°24' W 002°36'0 0.0
2018-Jun-14 23:58N 43°24' W 002°36'0 0.1
2018-Jun-14 23:27N 43°24' W 002°36'0 0.0
2018-Jun-14 22:59N 43°24' W 002°36'0 0.0
2018-Jun-14 22:30N 43°24' W 002°36'0 0.0
2018-Jun-14 22:00N 43°24' W 002°36'0 0.0
2018-Jun-14 21:30N 43°24' W 002°36'0 0.1
2018-Jun-14 20:59N 43°24' W 002°36'0 0.0
2018-Jun-14 18:48N 43°24' W 002°36'0 0.1
2018-Jun-14 18:24N 43°24' W 002°36'3 8.2
2018-Jun-14 18:00N 43°26' W 002°40'  
2018-Jun-12 00:13N 43°24' W 003°13'0 0.9
2018-Jun-11 23:58N 43°25' W 003°13'0 0.6
2018-Jun-11 23:30N 43°25' W 003°13'  

Dump ship's entire track history